sensor_id;sensor_type;location;lat;lon;timestamp;P1;durP1;ratioP1;P2;durP2;ratioP2
18082;SDS011;9168;51.194;6.840;2023-08-08T00:00:53;6.68;;;2.38;;
18082;SDS011;9168;51.194;6.840;2023-08-08T00:03:20;6.50;;;1.95;;
18082;SDS011;9168;51.194;6.840;2023-08-08T00:05:47;6.20;;;2.20;;
18082;SDS011;9168;51.194;6.840;2023-08-08T00:08:14;8.48;;;2.05;;
18082;SDS011;9168;51.194;6.840;2023-08-08T00:10:42;3.45;;;1.77;;
18082;SDS011;9168;51.194;6.840;2023-08-08T00:13:09;5.80;;;1.85;;
18082;SDS011;9168;51.194;6.840;2023-08-08T00:15:36;6.88;;;2.00;;
18082;SDS011;9168;51.194;6.840;2023-08-08T00:18:03;5.50;;;1.98;;
18082;SDS011;9168;51.194;6.840;2023-08-08T00:20:30;4.60;;;2.17;;
18082;SDS011;9168;51.194;6.840;2023-08-08T00:22:57;5.80;;;2.38;;
18082;SDS011;9168;51.194;6.840;2023-08-08T00:25:24;7.50;;;2.45;;
18082;SDS011;9168;51.194;6.840;2023-08-08T00:27:52;6.85;;;2.00;;
18082;SDS011;9168;51.194;6.840;2023-08-08T00:30:19;5.80;;;2.03;;
18082;SDS011;9168;51.194;6.840;2023-08-08T00:32:46;4.20;;;2.00;;
18082;SDS011;9168;51.194;6.840;2023-08-08T00:35:14;7.72;;;2.22;;
18082;SDS011;9168;51.194;6.840;2023-08-08T00:37:41;4.50;;;2.00;;
18082;SDS011;9168;51.194;6.840;2023-08-08T00:40:08;8.13;;;2.40;;
18082;SDS011;9168;51.194;6.840;2023-08-08T00:42:35;6.10;;;1.90;;
18082;SDS011;9168;51.194;6.840;2023-08-08T00:45:04;8.27;;;1.90;;
18082;SDS011;9168;51.194;6.840;2023-08-08T00:47:31;7.22;;;2.25;;
18082;SDS011;9168;51.194;6.840;2023-08-08T00:49:59;10.07;;;1.85;;
18082;SDS011;9168;51.194;6.840;2023-08-08T00:52:26;5.65;;;2.03;;
18082;SDS011;9168;51.194;6.840;2023-08-08T00:54:53;4.15;;;2.03;;
18082;SDS011;9168;51.194;6.840;2023-08-08T00:57:20;9.65;;;2.50;;
18082;SDS011;9168;51.194;6.840;2023-08-08T00:59:47;4.63;;;2.63;;
18082;SDS011;9168;51.194;6.840;2023-08-08T01:02:16;9.70;;;2.85;;
18082;SDS011;9168;51.194;6.840;2023-08-08T01:04:43;7.93;;;2.70;;
18082;SDS011;9168;51.194;6.840;2023-08-08T01:07:12;5.28;;;2.70;;
18082;SDS011;9168;51.194;6.840;2023-08-08T01:09:48;6.13;;;2.30;;
18082;SDS011;9168;51.194;6.840;2023-08-08T01:12:19;9.63;;;2.88;;
18082;SDS011;9168;51.194;6.840;2023-08-08T01:14:47;8.27;;;2.92;;
18082;SDS011;9168;51.194;6.840;2023-08-08T01:17:13;9.65;;;3.28;;
18082;SDS011;9168;51.194;6.840;2023-08-08T01:19:42;8.27;;;2.90;;
18082;SDS011;9168;51.194;6.840;2023-08-08T01:22:16;6.07;;;2.58;;
18082;SDS011;9168;51.194;6.840;2023-08-08T01:24:52;13.18;;;3.22;;
18082;SDS011;9168;51.194;6.840;2023-08-08T01:27:20;10.32;;;2.75;;
18082;SDS011;9168;51.194;6.840;2023-08-08T01:29:47;7.25;;;2.75;;
18082;SDS011;9168;51.194;6.840;2023-08-08T01:32:14;6.93;;;2.70;;
18082;SDS011;9168;51.194;6.840;2023-08-08T01:34:41;10.00;;;2.65;;
18082;SDS011;9168;51.194;6.840;2023-08-08T01:37:09;6.88;;;2.90;;
18082;SDS011;9168;51.194;6.840;2023-08-08T01:39:42;5.50;;;2.55;;
18082;SDS011;9168;51.194;6.840;2023-08-08T01:42:11;9.68;;;2.70;;
18082;SDS011;9168;51.194;6.840;2023-08-08T01:44:39;5.82;;;2.45;;
18082;SDS011;9168;51.194;6.840;2023-08-08T01:47:07;10.43;;;2.67;;
18082;SDS011;9168;51.194;6.840;2023-08-08T01:49:34;6.80;;;2.50;;
18082;SDS011;9168;51.194;6.840;2023-08-08T01:52:01;10.10;;;2.67;;
18082;SDS011;9168;51.194;6.840;2023-08-08T01:54:29;7.07;;;2.58;;
18082;SDS011;9168;51.194;6.840;2023-08-08T01:56:55;6.68;;;2.30;;
18082;SDS011;9168;51.194;6.840;2023-08-08T01:59:24;6.97;;;2.50;;
18082;SDS011;9168;51.194;6.840;2023-08-08T02:01:51;5.78;;;2.45;;
18082;SDS011;9168;51.194;6.840;2023-08-08T02:04:17;6.07;;;2.42;;
18082;SDS011;9168;51.194;6.840;2023-08-08T02:06:44;9.38;;;3.13;;
18082;SDS011;9168;51.194;6.840;2023-08-08T02:09:11;6.65;;;2.72;;
18082;SDS011;9168;51.194;6.840;2023-08-08T02:11:40;10.68;;;2.55;;
18082;SDS011;9168;51.194;6.840;2023-08-08T02:14:07;9.65;;;2.58;;
18082;SDS011;9168;51.194;6.840;2023-08-08T02:16:35;7.70;;;2.70;;
18082;SDS011;9168;51.194;6.840;2023-08-08T02:19:02;8.98;;;2.55;;
18082;SDS011;9168;51.194;6.840;2023-08-08T02:21:29;11.15;;;2.45;;
18082;SDS011;9168;51.194;6.840;2023-08-08T02:23:56;10.00;;;2.65;;
18082;SDS011;9168;51.194;6.840;2023-08-08T02:26:23;8.88;;;2.50;;
18082;SDS011;9168;51.194;6.840;2023-08-08T02:28:50;13.75;;;2.88;;
18082;SDS011;9168;51.194;6.840;2023-08-08T02:31:17;7.63;;;2.70;;
18082;SDS011;9168;51.194;6.840;2023-08-08T02:33:47;14.43;;;2.75;;
18082;SDS011;9168;51.194;6.840;2023-08-08T02:36:15;9.40;;;2.20;;
18082;SDS011;9168;51.194;6.840;2023-08-08T02:38:42;7.38;;;2.42;;
18082;SDS011;9168;51.194;6.840;2023-08-08T02:41:09;15.93;;;2.88;;
18082;SDS011;9168;51.194;6.840;2023-08-08T02:43:36;7.63;;;2.63;;
18082;SDS011;9168;51.194;6.840;2023-08-08T02:46:03;8.20;;;2.47;;
18082;SDS011;9168;51.194;6.840;2023-08-08T02:48:29;7.97;;;2.65;;
18082;SDS011;9168;51.194;6.840;2023-08-08T02:50:58;8.15;;;2.10;;
18082;SDS011;9168;51.194;6.840;2023-08-08T02:53:25;6.78;;;2.38;;
18082;SDS011;9168;51.194;6.840;2023-08-08T02:55:51;10.93;;;2.80;;
18082;SDS011;9168;51.194;6.840;2023-08-08T02:58:18;11.73;;;2.50;;
18082;SDS011;9168;51.194;6.840;2023-08-08T03:00:45;9.38;;;2.40;;
18082;SDS011;9168;51.194;6.840;2023-08-08T03:03:12;13.32;;;2.65;;
18082;SDS011;9168;51.194;6.840;2023-08-08T03:05:39;11.52;;;2.30;;
18082;SDS011;9168;51.194;6.840;2023-08-08T03:08:07;7.68;;;2.15;;
18082;SDS011;9168;51.194;6.840;2023-08-08T03:10:34;14.43;;;2.65;;
18082;SDS011;9168;51.194;6.840;2023-08-08T03:13:01;11.80;;;2.58;;
18082;SDS011;9168;51.194;6.840;2023-08-08T03:15:28;12.82;;;2.28;;
18082;SDS011;9168;51.194;6.840;2023-08-08T03:17:56;12.23;;;2.17;;
18082;SDS011;9168;51.194;6.840;2023-08-08T03:20:22;8.15;;;2.60;;
18082;SDS011;9168;51.194;6.840;2023-08-08T03:22:49;12.85;;;2.55;;
18082;SDS011;9168;51.194;6.840;2023-08-08T03:25:18;7.95;;;2.08;;
18082;SDS011;9168;51.194;6.840;2023-08-08T03:27:45;5.70;;;2.30;;
18082;SDS011;9168;51.194;6.840;2023-08-08T03:30:12;10.93;;;2.38;;
18082;SDS011;9168;51.194;6.840;2023-08-08T03:32:40;9.55;;;2.55;;
18082;SDS011;9168;51.194;6.840;2023-08-08T03:35:07;15.30;;;3.00;;
18082;SDS011;9168;51.194;6.840;2023-08-08T03:37:34;6.00;;;2.10;;
18082;SDS011;9168;51.194;6.840;2023-08-08T03:40:01;8.25;;;2.58;;
18082;SDS011;9168;51.194;6.840;2023-08-08T03:42:30;8.98;;;2.65;;
18082;SDS011;9168;51.194;6.840;2023-08-08T03:44:56;10.00;;;2.55;;
18082;SDS011;9168;51.194;6.840;2023-08-08T03:47:23;12.77;;;2.63;;
18082;SDS011;9168;51.194;6.840;2023-08-08T03:49:50;6.97;;;2.40;;
18082;SDS011;9168;51.194;6.840;2023-08-08T03:52:20;13.80;;;3.20;;
18082;SDS011;9168;51.194;6.840;2023-08-08T03:54:47;11.15;;;2.63;;
18082;SDS011;9168;51.194;6.840;2023-08-08T03:57:14;9.57;;;2.67;;
18082;SDS011;9168;51.194;6.840;2023-08-08T03:59:42;11.52;;;2.67;;
18082;SDS011;9168;51.194;6.840;2023-08-08T04:02:09;18.27;;;2.50;;
18082;SDS011;9168;51.194;6.840;2023-08-08T04:04:35;12.15;;;2.70;;
18082;SDS011;9168;51.194;6.840;2023-08-08T04:07:03;8.98;;;2.55;;
18082;SDS011;9168;51.194;6.840;2023-08-08T04:09:30;13.25;;;2.63;;
18082;SDS011;9168;51.194;6.840;2023-08-08T04:11:57;8.63;;;2.47;;
18082;SDS011;9168;51.194;6.840;2023-08-08T04:14:24;9.77;;;2.58;;
18082;SDS011;9168;51.194;6.840;2023-08-08T04:16:52;18.75;;;3.70;;
18082;SDS011;9168;51.194;6.840;2023-08-08T04:19:19;12.48;;;3.10;;
18082;SDS011;9168;51.194;6.840;2023-08-08T04:21:46;14.07;;;2.83;;
18082;SDS011;9168;51.194;6.840;2023-08-08T04:24:13;11.15;;;2.63;;
18082;SDS011;9168;51.194;6.840;2023-08-08T04:26:40;14.35;;;2.95;;
18082;SDS011;9168;51.194;6.840;2023-08-08T04:29:07;20.92;;;2.65;;
18082;SDS011;9168;51.194;6.840;2023-08-08T04:31:34;11.15;;;2.88;;
18082;SDS011;9168;51.194;6.840;2023-08-08T04:34:02;14.07;;;3.33;;
18082;SDS011;9168;51.194;6.840;2023-08-08T04:36:29;15.77;;;3.45;;
18082;SDS011;9168;51.194;6.840;2023-08-08T04:38:56;14.80;;;3.70;;
18082;SDS011;9168;51.194;6.840;2023-08-08T04:41:23;9.65;;;2.90;;
18082;SDS011;9168;51.194;6.840;2023-08-08T04:43:50;11.63;;;3.28;;
18082;SDS011;9168;51.194;6.840;2023-08-08T04:46:17;13.57;;;3.28;;
18082;SDS011;9168;51.194;6.840;2023-08-08T04:48:44;19.42;;;3.90;;
18082;SDS011;9168;51.194;6.840;2023-08-08T04:51:12;9.38;;;2.97;;
18082;SDS011;9168;51.194;6.840;2023-08-08T04:53:39;18.67;;;3.95;;
18082;SDS011;9168;51.194;6.840;2023-08-08T04:56:06;8.98;;;3.00;;
18082;SDS011;9168;51.194;6.840;2023-08-08T04:58:32;21.42;;;3.83;;
18082;SDS011;9168;51.194;6.840;2023-08-08T05:00:59;17.23;;;3.83;;
18082;SDS011;9168;51.194;6.840;2023-08-08T05:03:26;15.85;;;3.20;;
18082;SDS011;9168;51.194;6.840;2023-08-08T05:05:53;9.57;;;3.58;;
18082;SDS011;9168;51.194;6.840;2023-08-08T05:08:21;14.38;;;3.53;;
18082;SDS011;9168;51.194;6.840;2023-08-08T05:10:48;17.10;;;4.03;;
18082;SDS011;9168;51.194;6.840;2023-08-08T05:13:15;14.18;;;3.40;;
18082;SDS011;9168;51.194;6.840;2023-08-08T05:15:42;15.40;;;4.25;;
18082;SDS011;9168;51.194;6.840;2023-08-08T05:18:09;10.68;;;3.63;;
18082;SDS011;9168;51.194;6.840;2023-08-08T05:20:36;15.00;;;4.38;;
18082;SDS011;9168;51.194;6.840;2023-08-08T05:23:03;23.52;;;4.15;;
18082;SDS011;9168;51.194;6.840;2023-08-08T05:25:31;19.08;;;3.80;;
18082;SDS011;9168;51.194;6.840;2023-08-08T05:27:58;17.40;;;3.90;;
18082;SDS011;9168;51.194;6.840;2023-08-08T05:30:25;18.98;;;4.25;;
18082;SDS011;9168;51.194;6.840;2023-08-08T05:32:52;19.23;;;4.55;;
18082;SDS011;9168;51.194;6.840;2023-08-08T05:35:19;20.40;;;4.28;;
18082;SDS011;9168;51.194;6.840;2023-08-08T05:37:46;16.75;;;4.25;;
18082;SDS011;9168;51.194;6.840;2023-08-08T05:40:13;13.63;;;4.00;;
18082;SDS011;9168;51.194;6.840;2023-08-08T05:42:41;12.90;;;3.60;;
18082;SDS011;9168;51.194;6.840;2023-08-08T05:45:08;16.45;;;3.92;;
18082;SDS011;9168;51.194;6.840;2023-08-08T05:47:36;18.25;;;4.30;;
18082;SDS011;9168;51.194;6.840;2023-08-08T05:50:03;17.95;;;3.97;;
18082;SDS011;9168;51.194;6.840;2023-08-08T05:52:30;21.00;;;4.15;;
18082;SDS011;9168;51.194;6.840;2023-08-08T05:54:57;17.23;;;4.65;;
18082;SDS011;9168;51.194;6.840;2023-08-08T05:57:25;22.98;;;3.92;;
18082;SDS011;9168;51.194;6.840;2023-08-08T05:59:54;16.52;;;4.47;;
18082;SDS011;9168;51.194;6.840;2023-08-08T06:02:20;17.95;;;4.10;;
18082;SDS011;9168;51.194;6.840;2023-08-08T06:04:47;17.60;;;4.32;;
18082;SDS011;9168;51.194;6.840;2023-08-08T06:07:14;20.05;;;5.00;;
18082;SDS011;9168;51.194;6.840;2023-08-08T06:09:41;17.90;;;4.40;;
18082;SDS011;9168;51.194;6.840;2023-08-08T06:12:08;26.83;;;4.70;;
18082;SDS011;9168;51.194;6.840;2023-08-08T06:14:35;20.98;;;4.53;;
18082;SDS011;9168;51.194;6.840;2023-08-08T06:17:04;15.88;;;4.43;;
18082;SDS011;9168;51.194;6.840;2023-08-08T06:19:31;16.52;;;4.63;;
18082;SDS011;9168;51.194;6.840;2023-08-08T06:21:58;14.52;;;4.10;;
18082;SDS011;9168;51.194;6.840;2023-08-08T06:24:25;21.58;;;4.43;;
18082;SDS011;9168;51.194;6.840;2023-08-08T06:26:52;10.55;;;4.00;;
18082;SDS011;9168;51.194;6.840;2023-08-08T06:29:19;17.60;;;3.75;;
18082;SDS011;9168;51.194;6.840;2023-08-08T06:31:46;12.70;;;3.80;;
18082;SDS011;9168;51.194;6.840;2023-08-08T06:34:15;18.00;;;3.78;;
18082;SDS011;9168;51.194;6.840;2023-08-08T06:36:42;19.30;;;3.78;;
18082;SDS011;9168;51.194;6.840;2023-08-08T06:39:09;15.48;;;3.40;;
18082;SDS011;9168;51.194;6.840;2023-08-08T06:41:36;9.68;;;3.65;;
18082;SDS011;9168;51.194;6.840;2023-08-08T06:44:04;19.10;;;3.70;;
18082;SDS011;9168;51.194;6.840;2023-08-08T06:46:33;20.70;;;3.88;;
18082;SDS011;9168;51.194;6.840;2023-08-08T06:49:00;15.02;;;3.45;;
18082;SDS011;9168;51.194;6.840;2023-08-08T06:51:28;23.98;;;4.70;;
18082;SDS011;9168;51.194;6.840;2023-08-08T06:53:55;18.52;;;4.13;;
18082;SDS011;9168;51.194;6.840;2023-08-08T06:56:22;16.30;;;3.65;;
18082;SDS011;9168;51.194;6.840;2023-08-08T06:58:51;20.63;;;4.10;;
18082;SDS011;9168;51.194;6.840;2023-08-08T07:01:18;19.40;;;3.92;;
18082;SDS011;9168;51.194;6.840;2023-08-08T07:03:45;19.85;;;4.05;;
18082;SDS011;9168;51.194;6.840;2023-08-08T07:06:12;11.88;;;3.50;;
18082;SDS011;9168;51.194;6.840;2023-08-08T07:08:40;16.75;;;4.05;;
18082;SDS011;9168;51.194;6.840;2023-08-08T07:11:07;15.27;;;4.40;;
18082;SDS011;9168;51.194;6.840;2023-08-08T07:13:34;17.77;;;4.00;;
18082;SDS011;9168;51.194;6.840;2023-08-08T07:16:01;18.50;;;4.10;;
18082;SDS011;9168;51.194;6.840;2023-08-08T07:18:28;17.67;;;4.55;;
18082;SDS011;9168;51.194;6.840;2023-08-08T07:20:55;13.93;;;4.50;;
18082;SDS011;9168;51.194;6.840;2023-08-08T07:23:22;14.73;;;4.10;;
18082;SDS011;9168;51.194;6.840;2023-08-08T07:25:50;24.92;;;4.47;;
18082;SDS011;9168;51.194;6.840;2023-08-08T07:28:17;14.25;;;4.07;;
18082;SDS011;9168;51.194;6.840;2023-08-08T07:30:44;18.13;;;4.20;;
18082;SDS011;9168;51.194;6.840;2023-08-08T07:33:11;21.75;;;4.90;;
18082;SDS011;9168;51.194;6.840;2023-08-08T07:35:39;15.98;;;3.78;;
18082;SDS011;9168;51.194;6.840;2023-08-08T07:38:06;18.30;;;4.45;;
18082;SDS011;9168;51.194;6.840;2023-08-08T07:40:33;20.90;;;3.70;;
18082;SDS011;9168;51.194;6.840;2023-08-08T07:43:02;16.67;;;3.40;;
18082;SDS011;9168;51.194;6.840;2023-08-08T07:45:29;15.48;;;3.95;;
18082;SDS011;9168;51.194;6.840;2023-08-08T07:47:56;14.68;;;3.70;;
18082;SDS011;9168;51.194;6.840;2023-08-08T07:50:23;11.57;;;3.70;;
18082;SDS011;9168;51.194;6.840;2023-08-08T07:52:51;14.13;;;3.40;;
18082;SDS011;9168;51.194;6.840;2023-08-08T07:55:18;15.30;;;3.60;;
18082;SDS011;9168;51.194;6.840;2023-08-08T07:57:45;18.77;;;4.03;;
18082;SDS011;9168;51.194;6.840;2023-08-08T08:00:14;16.90;;;3.83;;
18082;SDS011;9168;51.194;6.840;2023-08-08T08:02:43;17.42;;;3.83;;
18082;SDS011;9168;51.194;6.840;2023-08-08T08:05:11;17.95;;;3.67;;
18082;SDS011;9168;51.194;6.840;2023-08-08T08:07:38;16.30;;;3.42;;
18082;SDS011;9168;51.194;6.840;2023-08-08T08:10:06;16.67;;;4.00;;
18082;SDS011;9168;51.194;6.840;2023-08-08T08:12:35;20.88;;;4.20;;
18082;SDS011;9168;51.194;6.840;2023-08-08T08:15:03;20.90;;;3.88;;
18082;SDS011;9168;51.194;6.840;2023-08-08T08:17:36;19.17;;;4.47;;
18082;SDS011;9168;51.194;6.840;2023-08-08T08:20:05;14.43;;;3.67;;
18082;SDS011;9168;51.194;6.840;2023-08-08T08:22:40;13.82;;;3.22;;
18082;SDS011;9168;51.194;6.840;2023-08-08T08:25:08;17.73;;;3.40;;
18082;SDS011;9168;51.194;6.840;2023-08-08T08:27:37;13.52;;;3.40;;
18082;SDS011;9168;51.194;6.840;2023-08-08T08:30:07;20.02;;;4.30;;
18082;SDS011;9168;51.194;6.840;2023-08-08T08:32:38;19.80;;;4.20;;
18082;SDS011;9168;51.194;6.840;2023-08-08T08:35:07;19.25;;;3.67;;
18082;SDS011;9168;51.194;6.840;2023-08-08T08:37:37;12.80;;;3.42;;
18082;SDS011;9168;51.194;6.840;2023-08-08T08:40:04;23.58;;;3.63;;
18082;SDS011;9168;51.194;6.840;2023-08-08T08:42:32;15.00;;;3.53;;
18082;SDS011;9168;51.194;6.840;2023-08-08T08:45:01;17.70;;;3.55;;
18082;SDS011;9168;51.194;6.840;2023-08-08T08:47:30;20.17;;;4.35;;
18082;SDS011;9168;51.194;6.840;2023-08-08T08:49:59;28.83;;;4.63;;
18082;SDS011;9168;51.194;6.840;2023-08-08T08:52:28;20.70;;;3.83;;
18082;SDS011;9168;51.194;6.840;2023-08-08T08:54:55;13.25;;;3.72;;
18082;SDS011;9168;51.194;6.840;2023-08-08T08:57:23;15.90;;;3.88;;
18082;SDS011;9168;51.194;6.840;2023-08-08T08:59:50;15.55;;;3.20;;
18082;SDS011;9168;51.194;6.840;2023-08-08T09:02:17;19.55;;;4.22;;
18082;SDS011;9168;51.194;6.840;2023-08-08T09:04:45;19.38;;;3.95;;
18082;SDS011;9168;51.194;6.840;2023-08-08T09:07:13;25.48;;;4.05;;
18082;SDS011;9168;51.194;6.840;2023-08-08T09:09:42;19.02;;;4.13;;
18082;SDS011;9168;51.194;6.840;2023-08-08T09:12:09;11.73;;;3.33;;
18082;SDS011;9168;51.194;6.840;2023-08-08T09:14:39;17.33;;;4.03;;
18082;SDS011;9168;51.194;6.840;2023-08-08T09:17:09;12.90;;;2.95;;
18082;SDS011;9168;51.194;6.840;2023-08-08T09:19:37;14.77;;;3.70;;
18082;SDS011;9168;51.194;6.840;2023-08-08T09:22:05;17.48;;;3.72;;
18082;SDS011;9168;51.194;6.840;2023-08-08T09:24:33;13.60;;;3.67;;
18082;SDS011;9168;51.194;6.840;2023-08-08T09:27:04;16.05;;;3.55;;
18082;SDS011;9168;51.194;6.840;2023-08-08T09:29:32;11.52;;;3.55;;
18082;SDS011;9168;51.194;6.840;2023-08-08T09:32:01;15.85;;;3.60;;
18082;SDS011;9168;51.194;6.840;2023-08-08T09:34:29;20.73;;;4.25;;
18082;SDS011;9168;51.194;6.840;2023-08-08T09:36:56;13.75;;;3.75;;
18082;SDS011;9168;51.194;6.840;2023-08-08T09:39:22;15.25;;;3.72;;
18082;SDS011;9168;51.194;6.840;2023-08-08T09:41:51;11.88;;;3.40;;
18082;SDS011;9168;51.194;6.840;2023-08-08T09:44:18;13.20;;;3.63;;
18082;SDS011;9168;51.194;6.840;2023-08-08T09:46:49;15.32;;;3.55;;
18082;SDS011;9168;51.194;6.840;2023-08-08T09:49:16;16.52;;;4.00;;
18082;SDS011;9168;51.194;6.840;2023-08-08T09:51:44;20.92;;;4.03;;
18082;SDS011;9168;51.194;6.840;2023-08-08T09:54:12;18.10;;;3.90;;
18082;SDS011;9168;51.194;6.840;2023-08-08T09:56:40;15.27;;;3.60;;
18082;SDS011;9168;51.194;6.840;2023-08-08T09:59:08;14.10;;;3.25;;
18082;SDS011;9168;51.194;6.840;2023-08-08T10:01:37;19.50;;;3.92;;
18082;SDS011;9168;51.194;6.840;2023-08-08T10:04:06;12.82;;;3.08;;
18082;SDS011;9168;51.194;6.840;2023-08-08T10:06:33;17.98;;;3.33;;
18082;SDS011;9168;51.194;6.840;2023-08-08T10:09:01;14.38;;;3.40;;
18082;SDS011;9168;51.194;6.840;2023-08-08T10:11:29;17.70;;;3.50;;
18082;SDS011;9168;51.194;6.840;2023-08-08T10:13:57;17.23;;;3.67;;
18082;SDS011;9168;51.194;6.840;2023-08-08T10:16:31;9.32;;;3.72;;
18082;SDS011;9168;51.194;6.840;2023-08-08T10:18:59;21.50;;;3.72;;
18082;SDS011;9168;51.194;6.840;2023-08-08T10:21:27;14.18;;;3.28;;
18082;SDS011;9168;51.194;6.840;2023-08-08T10:24:01;14.05;;;3.42;;
18082;SDS011;9168;51.194;6.840;2023-08-08T10:26:29;21.33;;;3.70;;
18082;SDS011;9168;51.194;6.840;2023-08-08T10:28:56;12.63;;;3.40;;
18082;SDS011;9168;51.194;6.840;2023-08-08T10:31:24;17.65;;;4.07;;
18082;SDS011;9168;51.194;6.840;2023-08-08T10:34:01;19.50;;;4.20;;
18082;SDS011;9168;51.194;6.840;2023-08-08T10:39:15;17.23;;;3.95;;
18082;SDS011;9168;51.194;6.840;2023-08-08T10:41:44;9.60;;;3.88;;
18082;SDS011;9168;51.194;6.840;2023-08-08T10:44:12;15.35;;;3.63;;
18082;SDS011;9168;51.194;6.840;2023-08-08T10:46:40;15.73;;;4.07;;
18082;SDS011;9168;51.194;6.840;2023-08-08T10:49:10;13.50;;;4.10;;
18082;SDS011;9168;51.194;6.840;2023-08-08T10:51:40;15.70;;;3.30;;
18082;SDS011;9168;51.194;6.840;2023-08-08T10:54:12;12.50;;;3.65;;
18082;SDS011;9168;51.194;6.840;2023-08-08T10:56:40;10.15;;;3.80;;
18082;SDS011;9168;51.194;6.840;2023-08-08T10:59:14;15.95;;;3.88;;
18082;SDS011;9168;51.194;6.840;2023-08-08T11:01:42;11.07;;;3.70;;
18082;SDS011;9168;51.194;6.840;2023-08-08T11:04:14;15.55;;;3.70;;
18082;SDS011;9168;51.194;6.840;2023-08-08T11:06:42;13.18;;;4.38;;
18082;SDS011;9168;51.194;6.840;2023-08-08T11:09:09;14.30;;;3.80;;
18082;SDS011;9168;51.194;6.840;2023-08-08T11:11:36;17.88;;;4.13;;
18082;SDS011;9168;51.194;6.840;2023-08-08T11:14:11;16.00;;;3.75;;
18082;SDS011;9168;51.194;6.840;2023-08-08T11:16:39;11.38;;;3.85;;
18082;SDS011;9168;51.194;6.840;2023-08-08T11:19:06;14.40;;;3.53;;
18082;SDS011;9168;51.194;6.840;2023-08-08T11:21:35;13.68;;;3.88;;
18082;SDS011;9168;51.194;6.840;2023-08-08T11:24:04;12.38;;;3.60;;
18082;SDS011;9168;51.194;6.840;2023-08-08T11:26:32;17.15;;;3.53;;
18082;SDS011;9168;51.194;6.840;2023-08-08T11:29:00;17.98;;;3.60;;
18082;SDS011;9168;51.194;6.840;2023-08-08T11:31:29;15.32;;;3.28;;
18082;SDS011;9168;51.194;6.840;2023-08-08T11:33:56;13.02;;;3.15;;
18082;SDS011;9168;51.194;6.840;2023-08-08T11:36:25;14.82;;;3.42;;
18082;SDS011;9168;51.194;6.840;2023-08-08T11:38:56;11.45;;;2.97;;
18082;SDS011;9168;51.194;6.840;2023-08-08T11:41:25;11.40;;;3.05;;
18082;SDS011;9168;51.194;6.840;2023-08-08T11:43:53;11.57;;;3.15;;
18082;SDS011;9168;51.194;6.840;2023-08-08T11:46:25;8.85;;;2.92;;
18082;SDS011;9168;51.194;6.840;2023-08-08T11:48:52;6.95;;;2.53;;
18082;SDS011;9168;51.194;6.840;2023-08-08T11:51:19;14.80;;;3.08;;
18082;SDS011;9168;51.194;6.840;2023-08-08T11:53:49;13.80;;;2.75;;
18082;SDS011;9168;51.194;6.840;2023-08-08T11:56:18;15.15;;;3.08;;
18082;SDS011;9168;51.194;6.840;2023-08-08T11:58:47;9.88;;;2.80;;
18082;SDS011;9168;51.194;6.840;2023-08-08T12:01:15;17.38;;;3.25;;
18082;SDS011;9168;51.194;6.840;2023-08-08T12:03:42;11.02;;;2.78;;
18082;SDS011;9168;51.194;6.840;2023-08-08T12:06:12;13.30;;;2.67;;
18082;SDS011;9168;51.194;6.840;2023-08-08T12:08:40;18.13;;;3.20;;
18082;SDS011;9168;51.194;6.840;2023-08-08T12:11:08;8.75;;;2.40;;
18082;SDS011;9168;51.194;6.840;2023-08-08T12:13:38;12.45;;;3.28;;
18082;SDS011;9168;51.194;6.840;2023-08-08T12:16:06;16.00;;;3.15;;
18082;SDS011;9168;51.194;6.840;2023-08-08T12:18:34;10.75;;;2.90;;
18082;SDS011;9168;51.194;6.840;2023-08-08T12:21:03;10.32;;;2.90;;
18082;SDS011;9168;51.194;6.840;2023-08-08T12:23:30;7.78;;;2.42;;
18082;SDS011;9168;51.194;6.840;2023-08-08T12:25:57;7.80;;;2.67;;
18082;SDS011;9168;51.194;6.840;2023-08-08T12:28:25;7.15;;;2.85;;
18082;SDS011;9168;51.194;6.840;2023-08-08T12:30:53;7.70;;;2.50;;
18082;SDS011;9168;51.194;6.840;2023-08-08T12:33:20;7.25;;;2.40;;
18082;SDS011;9168;51.194;6.840;2023-08-08T12:35:47;9.52;;;2.60;;
18082;SDS011;9168;51.194;6.840;2023-08-08T12:38:14;7.28;;;2.38;;
18082;SDS011;9168;51.194;6.840;2023-08-08T12:40:41;7.75;;;2.42;;
18082;SDS011;9168;51.194;6.840;2023-08-08T12:43:09;6.80;;;2.30;;
18082;SDS011;9168;51.194;6.840;2023-08-08T12:45:38;7.43;;;2.80;;
18082;SDS011;9168;51.194;6.840;2023-08-08T12:48:06;9.05;;;2.55;;
18082;SDS011;9168;51.194;6.840;2023-08-08T12:50:33;6.95;;;2.38;;
18082;SDS011;9168;51.194;6.840;2023-08-08T12:53:01;6.25;;;2.33;;
18082;SDS011;9168;51.194;6.840;2023-08-08T12:55:29;8.85;;;2.30;;
18082;SDS011;9168;51.194;6.840;2023-08-08T12:57:56;7.90;;;2.50;;
18082;SDS011;9168;51.194;6.840;2023-08-08T13:00:23;11.50;;;2.97;;
18082;SDS011;9168;51.194;6.840;2023-08-08T13:02:50;7.78;;;2.40;;
18082;SDS011;9168;51.194;6.840;2023-08-08T13:05:18;10.52;;;2.50;;
18082;SDS011;9168;51.194;6.840;2023-08-08T13:07:45;9.40;;;2.67;;
18082;SDS011;9168;51.194;6.840;2023-08-08T13:10:13;10.52;;;2.75;;
18082;SDS011;9168;51.194;6.840;2023-08-08T13:12:39;8.65;;;2.60;;
18082;SDS011;9168;51.194;6.840;2023-08-08T13:15:07;7.63;;;2.65;;
18082;SDS011;9168;51.194;6.840;2023-08-08T13:17:34;9.85;;;2.92;;
18082;SDS011;9168;51.194;6.840;2023-08-08T13:20:02;13.38;;;3.63;;
18082;SDS011;9168;51.194;6.840;2023-08-08T13:22:31;7.55;;;2.55;;
18082;SDS011;9168;51.194;6.840;2023-08-08T13:24:58;9.15;;;2.92;;
18082;SDS011;9168;51.194;6.840;2023-08-08T13:27:25;9.73;;;2.58;;
18082;SDS011;9168;51.194;6.840;2023-08-08T13:29:52;13.63;;;3.15;;
18082;SDS011;9168;51.194;6.840;2023-08-08T13:32:19;10.93;;;2.90;;
18082;SDS011;9168;51.194;6.840;2023-08-08T13:34:46;13.70;;;3.40;;
18082;SDS011;9168;51.194;6.840;2023-08-08T13:37:13;9.75;;;2.70;;
18082;SDS011;9168;51.194;6.840;2023-08-08T13:39:41;9.88;;;2.67;;
18082;SDS011;9168;51.194;6.840;2023-08-08T13:42:08;10.68;;;2.80;;
18082;SDS011;9168;51.194;6.840;2023-08-08T13:44:36;11.20;;;2.55;;
18082;SDS011;9168;51.194;6.840;2023-08-08T13:47:03;7.68;;;2.55;;
18082;SDS011;9168;51.194;6.840;2023-08-08T13:49:30;13.10;;;2.90;;
18082;SDS011;9168;51.194;6.840;2023-08-08T13:51:57;11.50;;;2.45;;
18082;SDS011;9168;51.194;6.840;2023-08-08T13:54:24;14.45;;;3.30;;
18082;SDS011;9168;51.194;6.840;2023-08-08T13:56:52;9.45;;;2.92;;
18082;SDS011;9168;51.194;6.840;2023-08-08T13:59:19;10.95;;;2.85;;
18082;SDS011;9168;51.194;6.840;2023-08-08T14:01:46;13.73;;;3.17;;
18082;SDS011;9168;51.194;6.840;2023-08-08T14:04:13;13.00;;;3.20;;
18082;SDS011;9168;51.194;6.840;2023-08-08T14:06:40;13.80;;;2.65;;
18082;SDS011;9168;51.194;6.840;2023-08-08T14:09:07;10.85;;;3.00;;
18082;SDS011;9168;51.194;6.840;2023-08-08T14:11:34;9.15;;;2.70;;
18082;SDS011;9168;51.194;6.840;2023-08-08T14:14:02;9.88;;;2.72;;
18082;SDS011;9168;51.194;6.840;2023-08-08T14:16:29;9.60;;;2.45;;
18082;SDS011;9168;51.194;6.840;2023-08-08T14:18:57;12.10;;;2.60;;
18082;SDS011;9168;51.194;6.840;2023-08-08T14:21:24;14.93;;;2.90;;
18082;SDS011;9168;51.194;6.840;2023-08-08T14:23:51;6.00;;;2.25;;
18082;SDS011;9168;51.194;6.840;2023-08-08T14:26:18;9.98;;;3.03;;
18082;SDS011;9168;51.194;6.840;2023-08-08T14:28:45;13.57;;;2.88;;
18082;SDS011;9168;51.194;6.840;2023-08-08T14:31:13;11.25;;;2.90;;
18082;SDS011;9168;51.194;6.840;2023-08-08T14:33:40;11.75;;;2.78;;
18082;SDS011;9168;51.194;6.840;2023-08-08T14:36:06;6.28;;;2.60;;
18082;SDS011;9168;51.194;6.840;2023-08-08T14:38:34;8.93;;;3.15;;
18082;SDS011;9168;51.194;6.840;2023-08-08T14:41:02;8.15;;;2.47;;
18082;SDS011;9168;51.194;6.840;2023-08-08T14:43:29;9.50;;;2.30;;
18082;SDS011;9168;51.194;6.840;2023-08-08T14:45:56;14.13;;;2.50;;
18082;SDS011;9168;51.194;6.840;2023-08-08T14:48:25;9.10;;;2.83;;
18082;SDS011;9168;51.194;6.840;2023-08-08T14:50:52;11.68;;;2.55;;
18082;SDS011;9168;51.194;6.840;2023-08-08T14:53:19;7.78;;;2.38;;
18082;SDS011;9168;51.194;6.840;2023-08-08T14:55:46;10.77;;;2.20;;
18082;SDS011;9168;51.194;6.840;2023-08-08T14:58:13;11.40;;;3.00;;